sensor_id;sensor_type;location;lat;lon;timestamp;P1;durP1;ratioP1;P2;durP2;ratioP2
8050;SDS011;4068;42.158;24.732;2022-11-11T00:01:02;93.53;;;45.50;;
8050;SDS011;4068;42.158;24.732;2022-11-11T00:03:29;80.03;;;44.40;;
8050;SDS011;4068;42.158;24.732;2022-11-11T00:05:59;89.43;;;44.00;;
8050;SDS011;4068;42.158;24.732;2022-11-11T00:08:25;77.90;;;42.97;;
8050;SDS011;4068;42.158;24.732;2022-11-11T00:10:50;86.07;;;44.50;;
8050;SDS011;4068;42.158;24.732;2022-11-11T00:13:16;81.47;;;42.47;;
8050;SDS011;4068;42.158;24.732;2022-11-11T00:15:41;82.63;;;43.30;;
8050;SDS011;4068;42.158;24.732;2022-11-11T00:18:08;87.47;;;44.33;;
8050;SDS011;4068;42.158;24.732;2022-11-11T00:20:53;82.63;;;43.17;;
8050;SDS011;4068;42.158;24.732;2022-11-11T00:23:37;82.13;;;43.50;;
8050;SDS011;4068;42.158;24.732;2022-11-11T00:26:21;79.10;;;41.37;;
8050;SDS011;4068;42.158;24.732;2022-11-11T00:28:46;86.83;;;43.83;;
8050;SDS011;4068;42.158;24.732;2022-11-11T00:31:12;82.67;;;43.63;;
8050;SDS011;4068;42.158;24.732;2022-11-11T00:33:39;85.25;;;43.15;;
8050;SDS011;4068;42.158;24.732;2022-11-11T00:36:05;86.27;;;43.83;;
8050;SDS011;4068;42.158;24.732;2022-11-11T00:38:31;80.87;;;43.20;;
8050;SDS011;4068;42.158;24.732;2022-11-11T00:41:14;83.47;;;44.00;;
8050;SDS011;4068;42.158;24.732;2022-11-11T00:43:42;89.20;;;43.07;;
8050;SDS011;4068;42.158;24.732;2022-11-11T00:46:08;85.20;;;44.37;;
8050;SDS011;4068;42.158;24.732;2022-11-11T00:48:53;91.10;;;43.90;;
8050;SDS011;4068;42.158;24.732;2022-11-11T00:51:37;83.43;;;41.97;;
8050;SDS011;4068;42.158;24.732;2022-11-11T00:54:03;90.07;;;44.43;;
8050;SDS011;4068;42.158;24.732;2022-11-11T00:56:28;80.13;;;42.57;;
8050;SDS011;4068;42.158;24.732;2022-11-11T00:58:54;82.33;;;41.37;;
8050;SDS011;4068;42.158;24.732;2022-11-11T01:01:19;88.77;;;45.13;;
8050;SDS011;4068;42.158;24.732;2022-11-11T01:03:45;84.50;;;41.43;;
8050;SDS011;4068;42.158;24.732;2022-11-11T01:06:11;81.50;;;42.50;;
8050;SDS011;4068;42.158;24.732;2022-11-11T01:08:37;86.70;;;44.83;;
8050;SDS011;4068;42.158;24.732;2022-11-11T01:11:03;91.57;;;43.17;;
8050;SDS011;4068;42.158;24.732;2022-11-11T01:13:30;83.73;;;41.53;;
8050;SDS011;4068;42.158;24.732;2022-11-11T01:16:01;81.50;;;42.37;;
8050;SDS011;4068;42.158;24.732;2022-11-11T01:18:28;84.60;;;43.40;;
8050;SDS011;4068;42.158;24.732;2022-11-11T01:23:31;85.73;;;44.20;;
8050;SDS011;4068;42.158;24.732;2022-11-11T01:26:05;86.37;;;44.07;;
8050;SDS011;4068;42.158;24.732;2022-11-11T01:28:31;88.90;;;43.83;;
8050;SDS011;4068;42.158;24.732;2022-11-11T01:31:00;82.00;;;43.77;;
8050;SDS011;4068;42.158;24.732;2022-11-11T01:33:27;81.13;;;40.40;;
8050;SDS011;4068;42.158;24.732;2022-11-11T01:35:52;85.93;;;43.77;;
8050;SDS011;4068;42.158;24.732;2022-11-11T01:38:17;80.10;;;41.93;;
8050;SDS011;4068;42.158;24.732;2022-11-11T01:40:44;81.10;;;43.63;;
8050;SDS011;4068;42.158;24.732;2022-11-11T01:45:53;84.93;;;43.20;;
8050;SDS011;4068;42.158;24.732;2022-11-11T01:48:32;80.83;;;41.93;;
8050;SDS011;4068;42.158;24.732;2022-11-11T01:51:26;78.87;;;41.30;;
8050;SDS011;4068;42.158;24.732;2022-11-11T01:54:01;82.13;;;41.70;;
8050;SDS011;4068;42.158;24.732;2022-11-11T01:56:30;74.47;;;39.57;;
8050;SDS011;4068;42.158;24.732;2022-11-11T01:58:57;75.93;;;40.40;;
8050;SDS011;4068;42.158;24.732;2022-11-11T02:01:27;79.27;;;41.00;;
8050;SDS011;4068;42.158;24.732;2022-11-11T02:03:53;82.87;;;42.50;;
8050;SDS011;4068;42.158;24.732;2022-11-11T02:06:39;84.93;;;41.80;;
8050;SDS011;4068;42.158;24.732;2022-11-11T02:09:05;82.23;;;41.80;;
8050;SDS011;4068;42.158;24.732;2022-11-11T02:11:32;86.60;;;43.10;;
8050;SDS011;4068;42.158;24.732;2022-11-11T02:14:19;81.90;;;41.10;;
8050;SDS011;4068;42.158;24.732;2022-11-11T02:17:00;77.03;;;40.20;;
8050;SDS011;4068;42.158;24.732;2022-11-11T02:20:11;84.17;;;41.63;;
8050;SDS011;4068;42.158;24.732;2022-11-11T02:22:22;79.67;;;40.03;;
8050;SDS011;4068;42.158;24.732;2022-11-11T02:24:53;76.57;;;40.07;;
8050;SDS011;4068;42.158;24.732;2022-11-11T02:27:20;88.00;;;43.83;;
8050;SDS011;4068;42.158;24.732;2022-11-11T02:29:49;88.50;;;42.30;;
8050;SDS011;4068;42.158;24.732;2022-11-11T02:32:18;84.70;;;43.90;;
8050;SDS011;4068;42.158;24.732;2022-11-11T02:34:43;85.10;;;42.87;;
8050;SDS011;4068;42.158;24.732;2022-11-11T02:37:09;78.67;;;41.23;;
8050;SDS011;4068;42.158;24.732;2022-11-11T02:39:36;78.60;;;41.20;;
8050;SDS011;4068;42.158;24.732;2022-11-11T02:42:07;78.87;;;40.90;;
8050;SDS011;4068;42.158;24.732;2022-11-11T02:44:34;82.30;;;41.47;;
8050;SDS011;4068;42.158;24.732;2022-11-11T02:47:01;76.43;;;42.00;;
8050;SDS011;4068;42.158;24.732;2022-11-11T02:49:27;80.50;;;41.13;;
8050;SDS011;4068;42.158;24.732;2022-11-11T02:51:53;84.67;;;41.30;;
8050;SDS011;4068;42.158;24.732;2022-11-11T02:54:18;83.33;;;43.47;;
8050;SDS011;4068;42.158;24.732;2022-11-11T02:56:43;89.17;;;43.20;;
8050;SDS011;4068;42.158;24.732;2022-11-11T02:59:27;75.77;;;40.90;;
8050;SDS011;4068;42.158;24.732;2022-11-11T03:01:52;79.57;;;42.57;;
8050;SDS011;4068;42.158;24.732;2022-11-11T03:04:18;87.30;;;39.83;;
8050;SDS011;4068;42.158;24.732;2022-11-11T03:06:43;77.83;;;40.30;;
8050;SDS011;4068;42.158;24.732;2022-11-11T03:09:09;77.97;;;39.83;;
8050;SDS011;4068;42.158;24.732;2022-11-11T03:11:34;83.20;;;41.63;;
8050;SDS011;4068;42.158;24.732;2022-11-11T03:14:02;85.47;;;41.47;;
8050;SDS011;4068;42.158;24.732;2022-11-11T03:16:28;82.40;;;41.63;;
8050;SDS011;4068;42.158;24.732;2022-11-11T03:19:12;78.83;;;41.27;;
8050;SDS011;4068;42.158;24.732;2022-11-11T03:21:37;82.53;;;41.83;;
8050;SDS011;4068;42.158;24.732;2022-11-11T03:24:03;82.37;;;42.47;;
8050;SDS011;4068;42.158;24.732;2022-11-11T03:26:28;76.43;;;41.07;;
8050;SDS011;4068;42.158;24.732;2022-11-11T03:28:54;82.97;;;42.53;;
8050;SDS011;4068;42.158;24.732;2022-11-11T03:31:20;85.03;;;41.40;;
8050;SDS011;4068;42.158;24.732;2022-11-11T03:33:45;81.30;;;40.93;;
8050;SDS011;4068;42.158;24.732;2022-11-11T03:36:11;82.47;;;43.37;;
8050;SDS011;4068;42.158;24.732;2022-11-11T03:38:36;90.53;;;45.37;;
8050;SDS011;4068;42.158;24.732;2022-11-11T03:41:02;89.77;;;45.87;;
8050;SDS011;4068;42.158;24.732;2022-11-11T03:43:28;90.10;;;44.53;;
8050;SDS011;4068;42.158;24.732;2022-11-11T03:45:56;85.33;;;43.57;;
8050;SDS011;4068;42.158;24.732;2022-11-11T03:48:23;79.50;;;42.30;;
8050;SDS011;4068;42.158;24.732;2022-11-11T03:50:50;79.60;;;43.13;;
8050;SDS011;4068;42.158;24.732;2022-11-11T03:53:17;85.73;;;43.03;;
8050;SDS011;4068;42.158;24.732;2022-11-11T03:55:47;83.10;;;42.40;;
8050;SDS011;4068;42.158;24.732;2022-11-11T03:58:13;83.30;;;42.30;;
8050;SDS011;4068;42.158;24.732;2022-11-11T04:00:39;77.37;;;43.57;;
8050;SDS011;4068;42.158;24.732;2022-11-11T04:03:14;84.27;;;41.87;;
8050;SDS011;4068;42.158;24.732;2022-11-11T04:06:00;80.10;;;40.47;;
8050;SDS011;4068;42.158;24.732;2022-11-11T04:08:44;85.90;;;42.90;;
8050;SDS011;4068;42.158;24.732;2022-11-11T04:14:13;79.03;;;40.70;;
8050;SDS011;4068;42.158;24.732;2022-11-11T04:16:57;89.63;;;46.27;;
8050;SDS011;4068;42.158;24.732;2022-11-11T04:19:23;78.57;;;41.30;;
8050;SDS011;4068;42.158;24.732;2022-11-11T04:22:08;102.37;;;46.90;;
8050;SDS011;4068;42.158;24.732;2022-11-11T04:24:33;83.77;;;44.80;;
8050;SDS011;4068;42.158;24.732;2022-11-11T04:27:18;84.50;;;44.57;;
8050;SDS011;4068;42.158;24.732;2022-11-11T04:29:44;123.73;;;57.13;;
8050;SDS011;4068;42.158;24.732;2022-11-11T04:32:18;114.30;;;54.90;;
8050;SDS011;4068;42.158;24.732;2022-11-11T04:35:03;93.60;;;47.60;;
8050;SDS011;4068;42.158;24.732;2022-11-11T04:37:32;91.37;;;45.40;;
8050;SDS011;4068;42.158;24.732;2022-11-11T04:39:59;96.73;;;47.00;;
8050;SDS011;4068;42.158;24.732;2022-11-11T04:42:43;80.13;;;42.23;;
8050;SDS011;4068;42.158;24.732;2022-11-11T04:45:09;89.60;;;43.50;;
8050;SDS011;4068;42.158;24.732;2022-11-11T04:47:56;83.57;;;42.27;;
8050;SDS011;4068;42.158;24.732;2022-11-11T04:50:36;94.10;;;44.73;;
8050;SDS011;4068;42.158;24.732;2022-11-11T04:53:04;83.67;;;43.57;;
8050;SDS011;4068;42.158;24.732;2022-11-11T04:55:31;94.63;;;48.83;;
8050;SDS011;4068;42.158;24.732;2022-11-11T04:58:19;78.87;;;42.23;;
8050;SDS011;4068;42.158;24.732;2022-11-11T05:00:46;70.30;;;38.27;;
8050;SDS011;4068;42.158;24.732;2022-11-11T05:03:11;71.60;;;38.17;;
8050;SDS011;4068;42.158;24.732;2022-11-11T05:05:48;71.77;;;38.23;;
8050;SDS011;4068;42.158;24.732;2022-11-11T05:08:32;79.23;;;38.10;;
8050;SDS011;4068;42.158;24.732;2022-11-11T05:11:18;73.63;;;36.43;;
8050;SDS011;4068;42.158;24.732;2022-11-11T05:13:45;78.60;;;36.03;;
8050;SDS011;4068;42.158;24.732;2022-11-11T05:16:30;75.23;;;36.17;;
8050;SDS011;4068;42.158;24.732;2022-11-11T05:19:16;76.40;;;37.77;;
8050;SDS011;4068;42.158;24.732;2022-11-11T05:22:04;71.03;;;38.17;;
8050;SDS011;4068;42.158;24.732;2022-11-11T05:24:51;70.87;;;37.13;;
8050;SDS011;4068;42.158;24.732;2022-11-11T05:27:35;78.20;;;40.30;;
8050;SDS011;4068;42.158;24.732;2022-11-11T05:30:01;76.17;;;41.10;;
8050;SDS011;4068;42.158;24.732;2022-11-11T05:32:28;80.00;;;41.37;;
8050;SDS011;4068;42.158;24.732;2022-11-11T05:34:53;90.10;;;41.13;;
8050;SDS011;4068;42.158;24.732;2022-11-11T05:37:19;81.90;;;41.63;;
8050;SDS011;4068;42.158;24.732;2022-11-11T05:39:45;75.77;;;38.10;;
8050;SDS011;4068;42.158;24.732;2022-11-11T05:42:10;81.67;;;41.33;;
8050;SDS011;4068;42.158;24.732;2022-11-11T05:44:36;73.13;;;39.80;;
8050;SDS011;4068;42.158;24.732;2022-11-11T05:47:01;80.73;;;42.50;;
8050;SDS011;4068;42.158;24.732;2022-11-11T05:49:27;90.87;;;43.10;;
8050;SDS011;4068;42.158;24.732;2022-11-11T05:51:53;72.13;;;38.10;;
8050;SDS011;4068;42.158;24.732;2022-11-11T05:54:22;74.00;;;38.30;;
8050;SDS011;4068;42.158;24.732;2022-11-11T05:56:48;81.30;;;40.07;;
8050;SDS011;4068;42.158;24.732;2022-11-11T05:59:13;71.47;;;36.87;;
8050;SDS011;4068;42.158;24.732;2022-11-11T06:01:39;75.70;;;38.47;;
8050;SDS011;4068;42.158;24.732;2022-11-11T06:04:05;67.00;;;33.93;;
8050;SDS011;4068;42.158;24.732;2022-11-11T06:06:31;66.47;;;34.77;;
8050;SDS011;4068;42.158;24.732;2022-11-11T06:08:58;62.55;;;33.63;;
8050;SDS011;4068;42.158;24.732;2022-11-11T06:11:23;60.83;;;33.25;;
8050;SDS011;4068;42.158;24.732;2022-11-11T06:13:51;69.97;;;34.80;;
8050;SDS011;4068;42.158;24.732;2022-11-11T06:16:17;62.20;;;32.10;;
8050;SDS011;4068;42.158;24.732;2022-11-11T06:18:42;63.95;;;31.40;;
8050;SDS011;4068;42.158;24.732;2022-11-11T06:21:08;54.28;;;30.75;;
8050;SDS011;4068;42.158;24.732;2022-11-11T06:23:33;45.80;;;29.05;;
8050;SDS011;4068;42.158;24.732;2022-11-11T06:25:59;59.58;;;31.67;;
8050;SDS011;4068;42.158;24.732;2022-11-11T06:31:11;64.20;;;34.03;;
8050;SDS011;4068;42.158;24.732;2022-11-11T06:33:38;76.90;;;41.53;;
8050;SDS011;4068;42.158;24.732;2022-11-11T06:36:04;70.63;;;37.33;;
8050;SDS011;4068;42.158;24.732;2022-11-11T06:38:30;71.60;;;38.55;;
8050;SDS011;4068;42.158;24.732;2022-11-11T06:40:56;82.38;;;41.95;;
8050;SDS011;4068;42.158;24.732;2022-11-11T06:43:21;76.53;;;40.15;;
8050;SDS011;4068;42.158;24.732;2022-11-11T06:45:50;76.57;;;39.50;;
8050;SDS011;4068;42.158;24.732;2022-11-11T06:48:17;67.07;;;36.47;;
8050;SDS011;4068;42.158;24.732;2022-11-11T06:50:42;65.10;;;35.38;;
8050;SDS011;4068;42.158;24.732;2022-11-11T06:53:14;66.55;;;36.30;;
8050;SDS011;4068;42.158;24.732;2022-11-11T06:55:41;62.55;;;33.00;;
8050;SDS011;4068;42.158;24.732;2022-11-11T06:58:11;60.60;;;32.58;;
8050;SDS011;4068;42.158;24.732;2022-11-11T07:00:39;61.28;;;31.90;;
8050;SDS011;4068;42.158;24.732;2022-11-11T07:03:05;51.33;;;29.80;;
8050;SDS011;4068;42.158;24.732;2022-11-11T07:05:32;59.25;;;31.80;;
8050;SDS011;4068;42.158;24.732;2022-11-11T07:08:01;61.10;;;29.30;;
8050;SDS011;4068;42.158;24.732;2022-11-11T07:10:28;53.30;;;30.00;;
8050;SDS011;4068;42.158;24.732;2022-11-11T07:12:53;53.78;;;30.77;;
8050;SDS011;4068;42.158;24.732;2022-11-11T07:15:19;54.88;;;29.10;;
8050;SDS011;4068;42.158;24.732;2022-11-11T07:17:44;51.78;;;27.10;;
8050;SDS011;4068;42.158;24.732;2022-11-11T07:20:09;51.90;;;28.50;;
8050;SDS011;4068;42.158;24.732;2022-11-11T07:22:35;50.65;;;29.05;;
8050;SDS011;4068;42.158;24.732;2022-11-11T07:25:01;50.25;;;27.92;;
8050;SDS011;4068;42.158;24.732;2022-11-11T07:27:27;43.25;;;24.83;;
8050;SDS011;4068;42.158;24.732;2022-11-11T07:29:52;57.95;;;25.75;;
8050;SDS011;4068;42.158;24.732;2022-11-11T07:32:18;40.10;;;22.42;;
8050;SDS011;4068;42.158;24.732;2022-11-11T07:34:43;45.50;;;22.60;;
8050;SDS011;4068;42.158;24.732;2022-11-11T07:37:08;26.73;;;15.93;;
8050;SDS011;4068;42.158;24.732;2022-11-11T07:39:34;21.90;;;14.00;;
8050;SDS011;4068;42.158;24.732;2022-11-11T07:41:59;24.98;;;14.68;;
8050;SDS011;4068;42.158;24.732;2022-11-11T07:44:25;26.77;;;14.77;;
8050;SDS011;4068;42.158;24.732;2022-11-11T07:46:50;20.80;;;14.25;;
8050;SDS011;4068;42.158;24.732;2022-11-11T07:49:16;26.08;;;15.38;;
8050;SDS011;4068;42.158;24.732;2022-11-11T07:51:41;29.80;;;16.33;;
8050;SDS011;4068;42.158;24.732;2022-11-11T07:54:07;32.05;;;16.33;;
8050;SDS011;4068;42.158;24.732;2022-11-11T07:56:32;28.85;;;16.45;;
8050;SDS011;4068;42.158;24.732;2022-11-11T07:58:57;26.00;;;16.30;;
8050;SDS011;4068;42.158;24.732;2022-11-11T08:01:23;26.95;;;15.73;;
8050;SDS011;4068;42.158;24.732;2022-11-11T08:03:48;24.48;;;15.45;;
8050;SDS011;4068;42.158;24.732;2022-11-11T08:06:17;23.40;;;15.13;;
8050;SDS011;4068;42.158;24.732;2022-11-11T08:08:44;24.85;;;16.23;;
8050;SDS011;4068;42.158;24.732;2022-11-11T08:11:10;25.15;;;15.95;;
8050;SDS011;4068;42.158;24.732;2022-11-11T08:13:36;31.95;;;15.27;;
8050;SDS011;4068;42.158;24.732;2022-11-11T08:16:05;25.92;;;15.07;;
8050;SDS011;4068;42.158;24.732;2022-11-11T08:18:34;27.63;;;14.57;;
8050;SDS011;4068;42.158;24.732;2022-11-11T08:21:00;31.33;;;15.10;;
8050;SDS011;4068;42.158;24.732;2022-11-11T08:23:26;28.95;;;14.65;;
8050;SDS011;4068;42.158;24.732;2022-11-11T08:26:03;24.70;;;14.45;;
8050;SDS011;4068;42.158;24.732;2022-11-11T08:28:30;24.17;;;14.50;;
8050;SDS011;4068;42.158;24.732;2022-11-11T08:30:57;25.30;;;14.93;;
8050;SDS011;4068;42.158;24.732;2022-11-11T08:33:24;23.13;;;14.35;;
8050;SDS011;4068;42.158;24.732;2022-11-11T08:35:50;23.67;;;13.95;;
8050;SDS011;4068;42.158;24.732;2022-11-11T08:38:18;22.65;;;14.40;;
8050;SDS011;4068;42.158;24.732;2022-11-11T08:40:44;25.20;;;14.55;;
8050;SDS011;4068;42.158;24.732;2022-11-11T08:43:10;24.42;;;15.13;;
8050;SDS011;4068;42.158;24.732;2022-11-11T08:45:36;26.92;;;15.73;;
8050;SDS011;4068;42.158;24.732;2022-11-11T08:48:02;26.13;;;13.48;;
8050;SDS011;4068;42.158;24.732;2022-11-11T08:50:27;24.25;;;15.18;;
8050;SDS011;4068;42.158;24.732;2022-11-11T08:52:53;26.60;;;15.02;;
8050;SDS011;4068;42.158;24.732;2022-11-11T08:55:18;24.83;;;15.18;;
8050;SDS011;4068;42.158;24.732;2022-11-11T08:57:44;25.25;;;15.10;;
8050;SDS011;4068;42.158;24.732;2022-11-11T09:00:10;24.10;;;15.45;;
8050;SDS011;4068;42.158;24.732;2022-11-11T09:02:37;24.75;;;15.85;;
8050;SDS011;4068;42.158;24.732;2022-11-11T09:05:02;32.80;;;15.88;;
8050;SDS011;4068;42.158;24.732;2022-11-11T09:07:28;26.45;;;15.55;;
8050;SDS011;4068;42.158;24.732;2022-11-11T09:09:54;24.83;;;15.10;;
8050;SDS011;4068;42.158;24.732;2022-11-11T09:12:20;22.40;;;14.57;;
8050;SDS011;4068;42.158;24.732;2022-11-11T09:14:45;26.73;;;14.23;;
8050;SDS011;4068;42.158;24.732;2022-11-11T09:17:12;22.40;;;14.75;;
8050;SDS011;4068;42.158;24.732;2022-11-11T09:19:37;23.33;;;13.57;;
8050;SDS011;4068;42.158;24.732;2022-11-11T09:22:03;21.70;;;14.27;;
8050;SDS011;4068;42.158;24.732;2022-11-11T09:24:28;23.02;;;13.88;;
8050;SDS011;4068;42.158;24.732;2022-11-11T09:26:54;28.42;;;15.38;;
8050;SDS011;4068;42.158;24.732;2022-11-11T09:29:19;32.15;;;15.23;;
8050;SDS011;4068;42.158;24.732;2022-11-11T09:31:45;21.98;;;13.40;;
8050;SDS011;4068;42.158;24.732;2022-11-11T09:34:11;25.50;;;13.20;;
8050;SDS011;4068;42.158;24.732;2022-11-11T09:36:36;27.45;;;13.95;;
8050;SDS011;4068;42.158;24.732;2022-11-11T09:39:02;23.80;;;14.43;;
8050;SDS011;4068;42.158;24.732;2022-11-11T09:43:59;25.20;;;13.27;;
8050;SDS011;4068;42.158;24.732;2022-11-11T09:54:18;30.48;;;13.93;;
8050;SDS011;4068;42.158;24.732;2022-11-11T09:56:58;25.83;;;13.85;;
8050;SDS011;4068;42.158;24.732;2022-11-11T09:59:28;19.98;;;12.25;;
8050;SDS011;4068;42.158;24.732;2022-11-11T10:07:24;23.88;;;12.20;;
8050;SDS011;4068;42.158;24.732;2022-11-11T10:10:01;23.05;;;12.10;;
8050;SDS011;4068;42.158;24.732;2022-11-11T10:12:34;21.58;;;12.57;;
8050;SDS011;4068;42.158;24.732;2022-11-11T10:15:04;21.30;;;12.75;;
8050;SDS011;4068;42.158;24.732;2022-11-11T10:17:37;24.30;;;12.70;;
8050;SDS011;4068;42.158;24.732;2022-11-11T10:20:27;20.35;;;12.40;;
8050;SDS011;4068;42.158;24.732;2022-11-11T10:25:36;21.42;;;12.45;;
8050;SDS011;4068;42.158;24.732;2022-11-11T10:28:16;20.27;;;12.77;;
8050;SDS011;4068;42.158;24.732;2022-11-11T10:30:44;24.20;;;12.95;;
8050;SDS011;4068;42.158;24.732;2022-11-11T10:33:13;19.95;;;12.25;;
8050;SDS011;4068;42.158;24.732;2022-11-11T10:35:43;21.25;;;13.90;;
8050;SDS011;4068;42.158;24.732;2022-11-11T10:38:16;17.30;;;12.40;;
8050;SDS011;4068;42.158;24.732;2022-11-11T10:40:57;17.90;;;12.00;;
8050;SDS011;4068;42.158;24.732;2022-11-11T10:43:30;20.95;;;11.63;;
8050;SDS011;4068;42.158;24.732;2022-11-11T10:48:32;20.35;;;11.35;;
8050;SDS011;4068;42.158;24.732;2022-11-11T10:51:12;17.52;;;11.65;;
8050;SDS011;4068;42.158;24.732;2022-11-11T10:59:25;18.52;;;10.65;;
8050;SDS011;4068;42.158;24.732;2022-11-11T11:04:34;15.80;;;10.75;;
8050;SDS011;4068;42.158;24.732;2022-11-11T11:07:06;16.83;;;10.35;;
8050;SDS011;4068;42.158;24.732;2022-11-11T11:09:39;17.08;;;10.65;;
8050;SDS011;4068;42.158;24.732;2022-11-11T11:12:14;21.00;;;10.98;;
8050;SDS011;4068;42.158;24.732;2022-11-11T11:14:42;17.58;;;11.10;;
8050;SDS011;4068;42.158;24.732;2022-11-11T11:17:14;17.38;;;10.70;;
8050;SDS011;4068;42.158;24.732;2022-11-11T11:19:44;16.27;;;10.52;;
8050;SDS011;4068;42.158;24.732;2022-11-11T11:25:20;20.15;;;11.55;;
8050;SDS011;4068;42.158;24.732;2022-11-11T11:27:48;18.83;;;10.65;;
8050;SDS011;4068;42.158;24.732;2022-11-11T11:32:56;14.98;;;10.63;;
8050;SDS011;4068;42.158;24.732;2022-11-11T11:37:56;24.90;;;13.57;;
8050;SDS011;4068;42.158;24.732;2022-11-11T11:40:22;22.30;;;14.07;;
8050;SDS011;4068;42.158;24.732;2022-11-11T11:42:47;22.38;;;13.02;;
8050;SDS011;4068;42.158;24.732;2022-11-11T11:47:48;24.90;;;14.63;;
8050;SDS011;4068;42.158;24.732;2022-11-11T11:50:28;24.48;;;13.40;;
8050;SDS011;4068;42.158;24.732;2022-11-11T11:55:43;20.48;;;12.73;;
8050;SDS011;4068;42.158;24.732;2022-11-11T11:58:56;20.50;;;12.63;;
8050;SDS011;4068;42.158;24.732;2022-11-11T12:01:10;21.75;;;11.95;;
8050;SDS011;4068;42.158;24.732;2022-11-11T12:06:25;18.95;;;12.35;;
8050;SDS011;4068;42.158;24.732;2022-11-11T12:30:47;17.38;;;11.20;;
8050;SDS011;4068;42.158;24.732;2022-11-11T12:36:35;18.08;;;12.80;;
8050;SDS011;4068;42.158;24.732;2022-11-11T12:44:29;20.27;;;12.13;;
8050;SDS011;4068;42.158;24.732;2022-11-11T12:49:39;23.77;;;14.40;;
8050;SDS011;4068;42.158;24.732;2022-11-11T12:57:34;30.63;;;16.33;;
8050;SDS011;4068;42.158;24.732;2022-11-11T13:05:30;38.05;;;19.45;;
8050;SDS011;4068;42.158;24.732;2022-11-11T13:10:52;38.53;;;22.30;;
8050;SDS011;4068;42.158;24.732;2022-11-11T13:16:16;34.17;;;20.83;;
8050;SDS011;4068;42.158;24.732;2022-11-11T13:19:00;37.53;;;20.92;;
8050;SDS011;4068;42.158;24.732;2022-11-11T13:21:50;30.10;;;20.17;;
8050;SDS011;4068;42.158;24.732;2022-11-11T13:24:19;30.75;;;20.50;;
8050;SDS011;4068;42.158;24.732;2022-11-11T13:26:51;35.65;;;19.60;;
8050;SDS011;4068;42.158;24.732;2022-11-11T13:31:47;31.63;;;19.55;;
8050;SDS011;4068;42.158;24.732;2022-11-11T13:34:15;34.58;;;20.75;;
8050;SDS011;4068;42.158;24.732;2022-11-11T13:36:45;31.52;;;19.90;;
8050;SDS011;4068;42.158;24.732;2022-11-11T13:39:22;37.97;;;20.77;;
8050;SDS011;4068;42.158;24.732;2022-11-11T13:41:51;35.67;;;21.10;;
8050;SDS011;4068;42.158;24.732;2022-11-11T13:44:22;35.35;;;19.13;;
8050;SDS011;4068;42.158;24.732;2022-11-11T13:46:50;37.42;;;21.90;;
8050;SDS011;4068;42.158;24.732;2022-11-11T13:52:26;37.28;;;21.38;;
8050;SDS011;4068;42.158;24.732;2022-11-11T13:55:02;42.13;;;21.73;;
8050;SDS011;4068;42.158;24.732;2022-11-11T13:57:32;35.55;;;20.85;;
8050;SDS011;4068;42.158;24.732;2022-11-11T14:00:22;37.50;;;20.60;;
8050;SDS011;4068;42.158;24.732;2022-11-11T14:11:24;49.15;;;22.13;;
8050;SDS011;4068;42.158;24.732;2022-11-11T14:13:57;38.25;;;20.70;;
8050;SDS011;4068;42.158;24.732;2022-11-11T14:21:47;37.58;;;20.17;;
8050;SDS011;4068;42.158;24.732;2022-11-11T14:24:21;31.25;;;19.45;;
8050;SDS011;4068;42.158;24.732;2022-11-11T14:29:36;33.47;;;18.73;;
8050;SDS011;4068;42.158;24.732;2022-11-11T14:32:19;32.25;;;18.52;;
8050;SDS011;4068;42.158;24.732;2022-11-11T14:40:41;24.67;;;14.23;;
8050;SDS011;4068;42.158;24.732;2022-11-11T14:46:00;20.45;;;13.10;;
8050;SDS011;4068;42.158;24.732;2022-11-11T14:54:05;23.27;;;13.23;;
8050;SDS011;4068;42.158;24.732;2022-11-11T14:56:42;20.77;;;12.07;;
8050;SDS011;4068;42.158;24.732;2022-11-11T14:59:08;23.52;;;13.70;;
8050;SDS011;4068;42.158;24.732;2022-11-11T15:01:38;18.75;;;11.93;;
8050;SDS011;4068;42.158;24.732;2022-11-11T15:04:03;27.65;;;12.90;;
8050;SDS011;4068;42.158;24.732;2022-11-11T15:06:44;20.75;;;12.77;;
8050;SDS011;4068;42.158;24.732;2022-11-11T15:15:01;22.60;;;12.68;;
8050;SDS011;4068;42.158;24.732;2022-11-11T15:31:58;25.80;;;14.18;;
8050;SDS011;4068;42.158;24.732;2022-11-11T15:34:46;30.35;;;14.77;;
8050;SDS011;4068;42.158;24.732;2022-11-11T15:37:49;27.42;;;14.05;;
8050;SDS011;4068;42.158;24.732;2022-11-11T15:40:21;29.15;;;15.38;;
8050;SDS011;4068;42.158;24.732;2022-11-11T15:42:49;23.27;;;14.93;;
8050;SDS011;4068;42.158;24.732;2022-11-11T15:47:44;22.40;;;13.15;;
8050;SDS011;4068;42.158;24.732;2022-11-11T15:50:15;21.60;;;13.55;;
8050;SDS011;4068;42.158;24.732;2022-11-11T15:53:02;22.25;;;13.32;;
8050;SDS011;4068;42.158;24.732;2022-11-11T15:55:32;25.10;;;14.20;;
8050;SDS011;4068;42.158;24.732;2022-11-11T16:00:41;18.08;;;12.40;;
8050;SDS011;4068;42.158;24.732;2022-11-11T16:03:14;24.83;;;12.32;;
8050;SDS011;4068;42.158;24.732;2022-11-11T16:05:41;18.33;;;11.80;;
8050;SDS011;4068;42.158;24.732;2022-11-11T16:08:07;21.55;;;11.65;;
8050;SDS011;4068;42.158;24.732;2022-11-11T16:10:38;17.98;;;11.82;;
8050;SDS011;4068;42.158;24.732;2022-11-11T16:13:12;17.30;;;11.10;;
8050;SDS011;4068;42.158;24.732;2022-11-11T16:15:41;19.67;;;12.75;;
8050;SDS011;4068;42.158;24.732;2022-11-11T16:18:15;18.33;;;11.68;;
8050;SDS011;4068;42.158;24.732;2022-11-11T16:20:46;20.77;;;11.73;;
8050;SDS011;4068;42.158;24.732;2022-11-11T16:23:15;16.00;;;11.00;;
8050;SDS011;4068;42.158;24.732;2022-11-11T16:25:42;19.27;;;11.45;;
8050;SDS011;4068;42.158;24.732;2022-11-11T16:28:10;24.58;;;11.30;;
8050;SDS011;4068;42.158;24.732;2022-11-11T16:30:37;18.15;;;10.63;;
8050;SDS011;4068;42.158;24.732;2022-11-11T16:33:02;17.23;;;9.73;;
8050;SDS011;4068;42.158;24.732;2022-11-11T16:35:34;21.58;;;10.65;;
8050;SDS011;4068;42.158;24.732;2022-11-11T16:38:02;15.45;;;9.38;;
8050;SDS011;4068;42.158;24.732;2022-11-11T16:43:10;15.63;;;8.70;;
8050;SDS011;4068;42.158;24.732;2022-11-11T16:45:48;11.60;;;8.13;;
8050;SDS011;4068;42.158;24.732;2022-11-11T16:53:50;12.73;;;8.68;;
8050;SDS011;4068;42.158;24.732;2022-11-11T16:56:30;16.80;;;9.43;;
8050;SDS011;4068;42.158;24.732;2022-11-11T16:59:04;12.18;;;8.43;;
8050;SDS011;4068;42.158;24.732;2022-11-11T17:01:40;16.77;;;8.98;;
8050;SDS011;4068;42.158;24.732;2022-11-11T17:04:10;11.65;;;8.52;;
8050;SDS011;4068;42.158;24.732;2022-11-11T17:06:55;13.27;;;8.85;;
8050;SDS011;4068;42.158;24.732;2022-11-11T17:12:01;14.52;;;10.07;;
8050;SDS011;4068;42.158;24.732;2022-11-11T17:14:28;16.27;;;10.88;;
8050;SDS011;4068;42.158;24.732;2022-11-11T17:16:56;17.70;;;10.65;;
8050;SDS011;4068;42.158;24.732;2022-11-11T17:19:21;17.75;;;11.23;;
8050;SDS011;4068;42.158;24.732;2022-11-11T17:21:48;17.90;;;10.63;;
8050;SDS011;4068;42.158;24.732;2022-11-11T17:24:13;14.80;;;10.57;;
8050;SDS011;4068;42.158;24.732;2022-11-11T17:26:39;17.70;;;10.23;;
8050;SDS011;4068;42.158;24.732;2022-11-11T17:29:05;13.18;;;8.18;;
8050;SDS011;4068;42.158;24.732;2022-11-11T17:31:31;13.65;;;8.35;;
8050;SDS011;4068;42.158;24.732;2022-11-11T17:33:56;13.85;;;8.10;;
8050;SDS011;4068;42.158;24.732;2022-11-11T17:36:22;13.80;;;8.48;;
8050;SDS011;4068;42.158;24.732;2022-11-11T17:38:47;12.63;;;8.48;;
8050;SDS011;4068;42.158;24.732;2022-11-11T17:41:13;15.20;;;9.93;;
8050;SDS011;4068;42.158;24.732;2022-11-11T17:43:39;14.88;;;9.93;;
8050;SDS011;4068;42.158;24.732;2022-11-11T17:46:04;13.25;;;9.23;;
8050;SDS011;4068;42.158;24.732;2022-11-11T17:48:30;17.65;;;9.35;;
8050;SDS011;4068;42.158;24.732;2022-11-11T17:50:56;15.75;;;9.77;;